Time;durP1;ratioP1;P1;durP2;ratioP2;P2;SDS_P1;SDS_P2;PMS_P1;PMS_P2;Temp;Humidity;BMP_temperature;BMP_pressure;BME280_temperature;BME280_humidity;BME280_pressure;Samples;Min_cycle;Max_cycle;Signal;HPM_P1;HPM_P2
2023/01/06 00:01:14;;;;;;;1.10;0.98;;;22.00;63.40;;;;;;5030259;28;20073;-70
2023/01/06 00:03:39;;;;;;;0.80;0.77;;;22.10;62.70;;;;;;5030164;28;20034;-70
2023/01/06 00:06:08;;;;;;;1.20;0.60;;;22.20;63.00;;;;;;5030126;28;20444;-69
2023/01/06 00:08:34;;;;;;;1.98;0.55;;;22.20;62.40;;;;;;5030417;28;20045;-69
2023/01/06 00:11:08;;;;;;;0.40;0.40;;;22.30;61.80;;;;;;5063290;28;20076;-69
2023/01/06 00:13:34;;;;;;;0.55;0.50;;;22.30;60.70;;;;;;5070156;28;20045;-69
2023/01/06 00:16:05;;;;;;;0.40;0.40;;;22.30;61.80;;;;;;5069845;28;20110;-69
2023/01/06 00:18:31;;;;;;;1.02;0.40;;;22.30;61.90;;;;;;5069881;28;20051;-69
2023/01/06 00:21:01;;;;;;;0.88;0.30;;;22.30;61.70;;;;;;5069773;28;20760;-69
2023/01/06 00:23:27;;;;;;;2.22;0.60;;;22.30;61.30;;;;;;5092511;28;20055;-70
2023/01/06 00:25:53;;;;;;;0.45;0.45;;;22.20;61.70;;;;;;5092706;28;20417;-69
2023/01/06 00:28:18;;;;;;;0.30;0.30;;;22.30;61.80;;;;;;5092648;28;20024;-69
2023/01/06 00:30:45;;;;;;;0.30;0.30;;;22.10;61.80;;;;;;5090970;28;20553;-69
2023/01/06 00:33:12;;;;;;;0.38;0.38;;;22.10;62.10;;;;;;5091178;28;20039;-69
2023/01/06 00:35:40;;;;;;;0.52;0.28;;;22.20;62.00;;;;;;5074427;28;20028;-68
2023/01/06 00:38:06;;;;;;;0.50;0.50;;;22.10;62.30;;;;;;5092383;28;20100;-69
2023/01/06 00:40:32;;;;;;;0.60;0.57;;;22.10;62.30;;;;;;5090836;28;20032;-69
2023/01/06 00:42:58;;;;;;;0.88;0.47;;;22.00;62.10;;;;;;5090954;28;20041;-69
2023/01/06 00:45:24;;;;;;;0.40;0.40;;;22.00;62.40;;;;;;5092344;28;20047;-69
2023/01/06 00:47:50;;;;;;;0.80;0.60;;;22.00;62.50;;;;;;5086455;28;20082;-68
2023/01/06 00:50:16;;;;;;;0.57;0.50;;;22.00;62.60;;;;;;5071887;28;20044;-68
2023/01/06 00:52:42;;;;;;;0.50;0.50;;;21.90;62.40;;;;;;5071516;28;20032;-68
2023/01/06 00:55:08;;;;;;;0.30;0.30;;;22.10;62.50;;;;;;5068973;28;20064;-68
2023/01/06 00:57:34;;;;;;;0.60;0.60;;;22.00;62.40;;;;;;5052321;28;20040;-67
2023/01/06 01:00:00;;;;;;;0.70;0.40;;;22.10;62.50;;;;;;5078445;28;20446;-69
2023/01/06 01:02:26;;;;;;;0.50;0.50;;;22.00;62.50;;;;;;5088268;28;20048;-69
2023/01/06 01:04:52;;;;;;;0.30;0.30;;;22.10;62.20;;;;;;5088799;28;20472;-69
2023/01/06 01:07:18;;;;;;;0.52;0.50;;;22.10;62.30;;;;;;5088257;28;20040;-69
2023/01/06 01:09:44;;;;;;;0.40;0.32;;;22.10;62.00;;;;;;5053947;28;20040;-68
2023/01/06 01:12:11;;;;;;;0.73;0.60;;;22.10;61.80;;;;;;5088046;28;20456;-68
2023/01/06 01:14:43;;;;;;;0.30;0.30;;;22.10;61.80;;;;;;5038099;28;20393;-68
2023/01/06 01:17:12;;;;;;;0.65;0.55;;;22.20;61.20;;;;;;5055605;28;20388;-68
2023/01/06 01:19:39;;;;;;;0.40;0.40;;;22.20;61.30;;;;;;5088744;28;20085;-69
2023/01/06 01:22:05;;;;;;;0.95;0.57;;;22.10;61.20;;;;;;5088653;28;20043;-69
2023/01/06 01:24:31;;;;;;;0.90;0.40;;;22.00;61.30;;;;;;5088689;28;20034;-68
2023/01/06 01:26:58;;;;;;;0.60;0.60;;;22.10;61.50;;;;;;5086631;28;20048;-69
2023/01/06 01:29:24;;;;;;;0.73;0.40;;;22.00;61.30;;;;;;5089633;28;20032;-69
2023/01/06 01:31:50;;;;;;;1.95;0.68;;;22.10;61.20;;;;;;5091401;28;20035;-68
2023/01/06 01:34:17;;;;;;;0.68;0.45;;;22.10;61.50;;;;;;5091417;28;20032;-68
2023/01/06 01:36:45;;;;;;;0.60;0.60;;;22.00;61.20;;;;;;5090042;28;20111;-68
2023/01/06 01:39:13;;;;;;;1.25;0.40;;;22.00;61.30;;;;;;5091113;28;20032;-67
2023/01/06 01:41:40;;;;;;;0.50;0.50;;;22.00;61.30;;;;;;5090066;28;20384;-69
2023/01/06 01:44:44;;;;;;;0.95;0.50;;;22.00;61.40;;;;;;5088876;28;20043;-69
2023/01/06 01:47:10;;;;;;;;;;;22.10;61.60;;;;;;5090945;28;20027;-68
2023/01/06 01:49:39;;;;;;;0.60;0.60;;;22.00;61.30;;;;;;5090178;28;19907;-69
2023/01/06 01:52:07;;;;;;;0.98;0.70;;;22.00;61.30;;;;;;5090392;28;20039;-67
2023/01/06 01:54:35;;;;;;;0.60;0.60;;;22.00;61.40;;;;;;5089959;28;20107;-69
2023/01/06 01:57:13;;;;;;;0.57;0.57;;;22.10;61.20;;;;;;5089332;28;20066;-68
2023/01/06 01:59:41;;;;;;;0.70;0.70;;;22.10;61.30;;;;;;5091019;28;20039;-68
2023/01/06 02:02:08;;;;;;;0.68;0.68;;;22.00;61.40;;;;;;5089043;28;20036;-69
2023/01/06 02:04:39;;;;;;;1.05;0.65;;;22.00;61.50;;;;;;5090390;28;20388;-69
2023/01/06 02:07:07;;;;;;;0.87;0.50;;;22.10;61.50;;;;;;5089483;28;20043;-68
2023/01/06 02:09:35;;;;;;;0.63;0.60;;;22.00;61.20;;;;;;5085574;28;20489;-69
2023/01/06 02:12:02;;;;;;;0.68;0.68;;;22.10;61.10;;;;;;5069850;28;20036;-67
2023/01/06 02:14:29;;;;;;;0.70;0.70;;;22.00;60.90;;;;;;5070386;28;20067;-69
2023/01/06 02:17:04;;;;;;;0.77;0.75;;;22.00;60.90;;;;;;5052220;28;20106;-69
2023/01/06 02:19:52;;;;;;;1.10;0.60;;;22.00;60.80;;;;;;5070562;28;20032;-68
2023/01/06 02:22:47;;;;;;;0.47;0.47;;;22.10;61.00;;;;;;5070162;28;20036;-68
2023/01/06 02:25:19;;;;;;;0.52;0.52;;;22.00;60.30;;;;;;5007991;28;20128;-68
2023/01/06 02:28:21;;;;;;;1.05;0.70;;;22.00;60.30;;;;;;5008262;28;20088;-68
2023/01/06 02:30:56;;;;;;;1.63;0.70;;;22.00;60.40;;;;;;4991803;28;20053;-69
2023/01/06 02:33:57;;;;;;;0.60;0.60;;;22.00;58.80;;;;;;5008036;28;20042;-68
2023/01/06 02:36:57;;;;;;;0.40;0.40;;;21.90;57.20;;;;;;4952866;28;20047;-68
2023/01/06 02:39:26;;;;;;;0.60;0.60;;;21.80;56.50;;;;;;4967943;28;20098;-69
2023/01/06 02:42:35;;;;;;;0.47;0.47;;;21.70;58.40;;;;;;4952658;28;20046;-69
2023/01/06 02:45:08;;;;;;;1.83;0.52;;;21.80;58.50;;;;;;4968871;28;20058;-68
2023/01/06 02:47:46;;;;;;;0.55;0.50;;;21.70;58.10;;;;;;4968755;28;20053;-69
2023/01/06 02:51:04;;;;;;;0.63;0.50;;;21.70;59.10;;;;;;4968801;28;20031;-68
2023/01/06 02:53:43;;;;;;;0.47;0.45;;;21.90;59.60;;;;;;4818608;29;20400;-68
2023/01/06 02:56:11;;;;;;;0.65;0.47;;;21.80;59.60;;;;;;4838041;29;20053;-68
2023/01/06 02:58:57;;;;;;;0.60;0.60;;;22.00;59.60;;;;;;4855272;29;20518;-68
2023/01/06 03:01:31;;;;;;;0.85;0.50;;;21.90;60.20;;;;;;4846695;29;20041;-68
2023/01/06 03:04:02;;;;;;;1.90;0.63;;;22.00;59.60;;;;;;4855252;29;20058;-68
2023/01/06 03:06:31;;;;;;;2.80;1.02;;;21.90;59.70;;;;;;4855313;29;20042;-68
2023/01/06 03:09:00;;;;;;;0.73;0.55;;;22.00;60.50;;;;;;4855275;29;20057;-68
2023/01/06 03:11:29;;;;;;;0.80;0.60;;;22.10;60.70;;;;;;4839747;29;20070;-69
2023/01/06 03:14:12;;;;;;;0.85;0.60;;;22.10;59.50;;;;;;4884444;29;20036;-68
2023/01/06 03:16:39;;;;;;;1.17;0.82;;;22.10;60.20;;;;;;4892501;29;20053;-68
2023/01/06 03:19:05;;;;;;;0.40;0.40;;;22.00;59.10;;;;;;4892293;29;20040;-68
2023/01/06 03:21:34;;;;;;;0.40;0.40;;;21.90;59.90;;;;;;4876931;29;20048;-68
2023/01/06 03:24:03;;;;;;;0.50;0.50;;;22.00;59.10;;;;;;4892582;29;20056;-68
2023/01/06 03:26:29;;;;;;;1.17;0.38;;;22.00;57.50;;;;;;4864906;29;20036;-69
2023/01/06 03:28:55;;;;;;;0.65;0.52;;;21.80;59.70;;;;;;4909697;29;20043;-68
2023/01/06 03:31:42;;;;;;;2.40;0.75;;;21.80;57.80;;;;;;5038696;28;20052;-69
2023/01/06 03:34:26;;;;;;;1.23;0.77;;;21.80;60.20;;;;;;5052834;28;20441;-68
2023/01/06 03:37:09;;;;;;;0.90;0.70;;;21.70;57.40;;;;;;5030248;28;20033;-68
2023/01/06 03:40:04;;;;;;;0.70;0.70;;;21.80;59.30;;;;;;5013984;28;20119;-68
2023/01/06 03:45:49;;;;;;;0.60;0.60;;;21.70;58.40;;;;;;4914254;29;20202;-69
2023/01/06 03:48:35;;;;;;;0.88;0.65;;;21.80;57.40;;;;;;4914202;29;20040;-69
2023/01/06 03:51:13;;;;;;;1.90;1.15;;;21.80;57.80;;;;;;4876422;29;20365;-68
2023/01/06 03:53:56;;;;;;;0.90;0.63;;;21.70;57.60;;;;;;4876757;29;20053;-69
2023/01/06 03:56:30;;;;;;;0.77;0.70;;;21.80;59.10;;;;;;4861028;29;20056;-68
2023/01/06 03:59:02;;;;;;;1.77;0.70;;;21.70;56.80;;;;;;4857922;29;20195;-68
2023/01/06 04:01:30;;;;;;;0.60;0.60;;;21.80;57.70;;;;;;4842460;29;20042;-68
2023/01/06 04:03:57;;;;;;;0.70;0.70;;;21.90;60.20;;;;;;4842169;29;20065;-69
2023/01/06 04:06:26;;;;;;;1.67;0.70;;;21.90;58.60;;;;;;4857627;29;20073;-68
2023/01/06 04:08:52;;;;;;;0.70;0.70;;;21.80;59.60;;;;;;4890298;29;20055;-68
2023/01/06 04:14:04;;;;;;;0.95;0.63;;;21.70;59.90;;;;;;4884173;29;20667;-68
2023/01/06 04:16:30;;;;;;;0.70;0.70;;;21.70;60.00;;;;;;4889270;29;20055;-69
2023/01/06 04:18:56;;;;;;;0.60;0.60;;;21.80;59.00;;;;;;4968386;28;20050;-69
2023/01/06 04:21:22;;;;;;;0.85;0.70;;;21.70;59.00;;;;;;4973275;28;20046;-69
2023/01/06 04:23:48;;;;;;;0.80;0.80;;;21.70;57.70;;;;;;4972784;28;20133;-68
2023/01/06 04:26:14;;;;;;;1.30;0.65;;;21.60;57.80;;;;;;4973273;28;20065;-68
2023/01/06 04:28:46;;;;;;;1.00;0.50;;;21.60;59.30;;;;;;4997898;28;20051;-69
2023/01/06 04:31:12;;;;;;;1.45;0.70;;;21.60;57.40;;;;;;5070836;28;20036;-68
2023/01/06 04:33:39;;;;;;;0.60;0.50;;;21.60;59.50;;;;;;5053976;28;20473;-68
2023/01/06 04:36:09;;;;;;;0.85;0.50;;;21.60;59.80;;;;;;5053816;28;20052;-68
2023/01/06 04:38:36;;;;;;;0.70;0.70;;;21.50;58.80;;;;;;5054053;28;20115;-69
2023/01/06 04:41:02;;;;;;;0.50;0.50;;;21.60;58.30;;;;;;5054199;28;20463;-68
2023/01/06 04:43:29;;;;;;;0.73;0.73;;;21.60;57.90;;;;;;5071806;28;20036;-69
2023/01/06 04:45:58;;;;;;;0.68;0.63;;;21.60;57.30;;;;;;5072078;28;20354;-69
2023/01/06 04:48:24;;;;;;;0.73;0.57;;;21.70;58.40;;;;;;5037359;28;20048;-68
2023/01/06 04:51:02;;;;;;;1.45;0.90;;;21.60;59.60;;;;;;5074349;28;20028;-68
2023/01/06 04:53:28;;;;;;;0.68;0.45;;;21.60;59.70;;;;;;5071583;28;20131;-68
2023/01/06 04:55:54;;;;;;;0.95;0.95;;;21.70;60.10;;;;;;5071618;28;20537;-69
2023/01/06 04:58:20;;;;;;;0.47;0.38;;;21.70;59.90;;;;;;5074085;28;20029;-69
2023/01/06 05:00:46;;;;;;;0.52;0.50;;;21.70;58.40;;;;;;5071459;28;20374;-70
2023/01/06 05:03:12;;;;;;;0.70;0.50;;;21.70;57.60;;;;;;5071553;28;20033;-70
2023/01/06 05:05:38;;;;;;;0.50;0.50;;;21.50;50.50;;;;;;5071305;28;20024;-70
2023/01/06 05:08:04;;;;;;;0.75;0.57;;;21.40;58.10;;;;;;5053730;28;20051;-70
2023/01/06 05:10:30;;;;;;;0.70;0.70;;;21.30;58.10;;;;;;5058550;28;20084;-70
2023/01/06 05:12:56;;;;;;;0.80;0.80;;;21.30;54.30;;;;;;5033460;28;20048;-69
2023/01/06 05:15:22;;;;;;;2.13;0.93;;;21.30;59.00;;;;;;5033670;28;20037;-69
2023/01/06 05:17:48;;;;;;;1.02;0.82;;;21.30;56.80;;;;;;5051404;28;20033;-69
2023/01/06 05:20:14;;;;;;;1.58;0.70;;;21.30;59.30;;;;;;5051543;28;20031;-68
2023/01/06 05:22:40;;;;;;;0.63;0.63;;;21.30;59.90;;;;;;5050960;28;20497;-69
2023/01/06 05:25:06;;;;;;;2.05;1.02;;;21.50;63.60;;;;;;5051239;28;20466;-69
2023/01/06 05:27:32;;;;;;;2.83;0.57;;;21.80;65.10;;;;;;5050927;28;20124;-66
2023/01/06 05:29:58;;;;;;;1.35;1.25;;;22.20;66.80;;;;;;5051857;28;20119;-67
2023/01/06 05:32:24;;;;;;;1.70;0.73;;;22.40;68.00;;;;;;5015730;28;20127;-67
2023/01/06 05:34:50;;;;;;;0.73;0.60;;;22.40;64.50;;;;;;5050888;28;20094;-69
2023/01/06 05:37:16;;;;;;;1.10;0.85;;;22.50;60.00;;;;;;5050920;28;20029;-69
2023/01/06 05:39:42;;;;;;;0.75;0.60;;;22.30;61.00;;;;;;5050918;28;20548;-67
2023/01/06 05:42:08;;;;;;;0.50;0.50;;;22.30;61.30;;;;;;5050829;28;20041;-68
2023/01/06 05:44:34;;;;;;;2.28;0.77;;;22.20;61.00;;;;;;5050729;28;20041;-68
2023/01/06 05:47:00;;;;;;;5.03;1.10;;;22.20;62.40;;;;;;5014649;28;20047;-67
2023/01/06 05:49:26;;;;;;;0.75;0.57;;;22.00;58.20;;;;;;5050811;28;20021;-68
2023/01/06 05:51:52;;;;;;;0.90;0.90;;;22.10;63.70;;;;;;5050622;28;20082;-68
2023/01/06 05:54:18;;;;;;;1.65;1.00;;;22.10;62.60;;;;;;4998924;28;20053;-69
2023/01/06 05:56:44;;;;;;;0.73;0.60;;;22.00;61.60;;;;;;4998878;28;20132;-69
2023/01/06 05:59:10;;;;;;;0.47;0.45;;;22.00;63.50;;;;;;5051017;28;20087;-69
2023/01/06 06:01:36;;;;;;;0.57;0.45;;;21.90;62.50;;;;;;5051352;28;20452;-69
2023/01/06 06:04:02;;;;;;;0.43;0.43;;;22.10;63.70;;;;;;5050964;28;20043;-69
2023/01/06 06:06:29;;;;;;;0.70;0.38;;;21.90;61.10;;;;;;4999300;28;20085;-71
2023/01/06 06:08:56;;;;;;;0.32;0.32;;;22.20;55.80;;;;;;5050460;28;20128;-71
2023/01/06 06:11:22;;;;;;;0.20;0.20;;;22.20;55.80;;;;;;5050010;28;20049;-71
2023/01/06 06:13:51;;;;;;;0.80;0.52;;;22.20;55.80;;;;;;5050230;28;20028;-71
2023/01/06 06:16:20;;;;;;;0.95;0.85;;;22.30;54.90;;;;;;5050408;28;20032;-69
2023/01/06 06:18:52;;;;;;;1.10;0.90;;;22.30;48.90;;;;;;5050327;28;20469;-69
2023/01/06 06:21:24;;;;;;;0.43;0.43;;;22.20;46.50;;;;;;5050289;28;20089;-69
2023/01/06 06:23:52;;;;;;;0.50;0.50;;;22.20;47.30;;;;;;5032104;28;20053;-68
2023/01/06 06:26:18;;;;;;;2.28;0.60;;;22.10;46.80;;;;;;5050371;28;20029;-67
2023/01/06 06:28:44;;;;;;;0.95;0.80;;;22.20;49.20;;;;;;5050148;28;20041;-68
2023/01/06 06:31:25;;;;;;;1.17;1.00;;;22.10;47.60;;;;;;5050417;28;20044;-69
2023/01/06 06:34:12;;;;;;;0.73;0.73;;;22.10;48.40;;;;;;5050088;28;20037;-68
2023/01/06 06:36:38;;;;;;;0.98;0.88;;;22.20;47.30;;;;;;4988351;28;20046;-68
2023/01/06 06:39:04;;;;;;;0.70;0.70;;;22.10;45.60;;;;;;4988439;28;20396;-68
2023/01/06 06:41:30;;;;;;;1.10;1.00;;;22.10;47.70;;;;;;4988223;28;20090;-70
2023/01/06 06:43:56;;;;;;;3.15;0.88;;;22.00;47.40;;;;;;4988390;28;20395;-69
2023/01/06 06:46:23;;;;;;;1.85;1.08;;;22.10;46.90;;;;;;4993852;28;20041;-72
2023/01/06 06:48:49;;;;;;;1.80;0.80;;;22.00;46.40;;;;;;5006682;28;20037;-73
2023/01/06 06:51:18;;;;;;;1.10;1.00;;;22.20;58.90;;;;;;4990953;28;20384;-72
2023/01/06 06:53:44;;;;;;;0.85;0.85;;;22.30;58.70;;;;;;5007763;28;20434;-74
2023/01/06 06:56:11;;;;;;;1.02;0.93;;;22.30;57.60;;;;;;5008037;28;20049;-73
2023/01/06 06:58:38;;;;;;;2.90;0.90;;;22.40;58.90;;;;;;5009040;28;20033;-72
2023/01/06 07:01:05;;;;;;;1.70;1.10;;;22.40;56.00;;;;;;5009039;28;20030;-78
2023/01/06 07:03:31;;;;;;;1.90;1.00;;;22.40;55.50;;;;;;5000642;28;20069;-76
2023/01/06 07:05:58;;;;;;;0.68;0.50;;;22.40;59.40;;;;;;5003997;28;20121;-74
2023/01/06 07:08:24;;;;;;;1.00;0.90;;;22.60;57.60;;;;;;5046933;28;20053;-73
2023/01/06 07:10:50;;;;;;;1.35;0.95;;;22.60;53.20;;;;;;5053902;28;20053;-73
2023/01/06 07:13:16;;;;;;;1.88;1.25;;;22.70;49.70;;;;;;5053855;28;20044;-73
2023/01/06 07:15:42;;;;;;;3.17;1.27;;;22.40;45.80;;;;;;5053537;28;20102;-74
2023/01/06 07:18:09;;;;;;;1.00;0.80;;;22.30;46.30;;;;;;5053744;28;20542;-74
2023/01/06 07:20:36;;;;;;;1.38;0.90;;;22.30;48.40;;;;;;5053767;28;20037;-73
2023/01/06 07:23:03;;;;;;;0.80;0.80;;;22.30;45.80;;;;;;5035590;28;20165;-73
2023/01/06 07:25:30;;;;;;;1.40;0.80;;;22.20;46.50;;;;;;5053452;28;20543;-75
2023/01/06 07:28:04;;;;;;;1.20;0.90;;;22.10;46.70;;;;;;5061842;28;20059;-72
2023/01/06 07:30:30;;;;;;;1.10;0.80;;;22.10;44.30;;;;;;5045538;28;20036;-70
2023/01/06 07:32:56;;;;;;;1.10;0.90;;;22.00;46.40;;;;;;5080916;28;20537;-70
2023/01/06 07:35:22;;;;;;;0.88;0.88;;;22.00;45.80;;;;;;5072775;28;20125;-72
2023/01/06 07:37:48;;;;;;;1.10;1.00;;;22.00;44.90;;;;;;5055219;28;20488;-71
2023/01/06 07:40:14;;;;;;;1.27;1.17;;;21.90;47.60;;;;;;5052322;28;20094;-71
2023/01/06 07:42:40;;;;;;;1.27;0.70;;;21.90;45.00;;;;;;5053029;28;20036;-71
2023/01/06 07:45:06;;;;;;;1.17;0.73;;;21.90;47.30;;;;;;5059586;28;20098;-70
2023/01/06 07:47:33;;;;;;;0.90;0.90;;;22.00;50.80;;;;;;5065829;28;20089;-69
2023/01/06 07:49:59;;;;;;;0.90;0.90;;;22.10;52.50;;;;;;5062121;28;20036;-70
2023/01/06 07:52:25;;;;;;;1.48;1.02;;;22.20;47.40;;;;;;5064080;28;20021;-71
2023/01/06 07:54:51;;;;;;;0.68;0.68;;;22.20;46.90;;;;;;5038057;28;20035;-73
2023/01/06 07:57:17;;;;;;;0.60;0.60;;;22.10;50.20;;;;;;5065010;28;20443;-71
2023/01/06 07:59:43;;;;;;;0.82;0.68;;;22.20;51.10;;;;;;5068157;28;20433;-73
2023/01/06 08:02:12;;;;;;;0.60;0.60;;;22.20;48.40;;;;;;5066168;28;20036;-71
2023/01/06 08:04:38;;;;;;;0.77;0.60;;;22.20;48.40;;;;;;5034648;28;20041;-73
2023/01/06 08:07:04;;;;;;;1.40;1.10;;;22.30;48.50;;;;;;5052772;28;20029;-72
2023/01/06 08:09:30;;;;;;;0.77;0.65;;;22.30;51.40;;;;;;5051926;28;20109;-73
2023/01/06 08:11:56;;;;;;;0.88;0.65;;;22.20;48.20;;;;;;5052184;28;20116;-73
2023/01/06 08:14:22;;;;;;;0.60;0.60;;;22.20;51.70;;;;;;5051886;28;20025;-71
2023/01/06 08:16:48;;;;;;;0.55;0.50;;;22.40;49.30;;;;;;5052296;28;20024;-72
2023/01/06 08:19:14;;;;;;;1.20;0.77;;;22.40;52.50;;;;;;5051865;28;20427;-71
2023/01/06 08:21:40;;;;;;;0.68;0.68;;;22.50;51.90;;;;;;5033007;28;20048;-71
2023/01/06 08:24:07;;;;;;;1.13;1.10;;;22.50;49.90;;;;;;5051897;28;20036;-71
2023/01/06 08:26:33;;;;;;;2.22;1.02;;;22.60;50.70;;;;;;5052404;28;20032;-72
2023/01/06 08:28:59;;;;;;;6.25;0.60;;;22.50;54.30;;;;;;5052173;28;20037;-70
2023/01/06 08:31:24;;;;;;;1.30;1.20;;;22.50;53.80;;;;;;5052033;28;20033;-70
2023/01/06 08:33:52;;;;;;;1.63;0.63;;;22.50;50.60;;;;;;5052193;28;20118;-73
2023/01/06 08:36:20;;;;;;;0.93;0.80;;;22.60;54.10;;;;;;5058784;28;20101;-72
2023/01/06 08:38:46;;;;;;;1.52;1.10;;;22.50;54.50;;;;;;5072192;28;20111;-70
2023/01/06 08:41:13;;;;;;;0.95;0.73;;;22.60;53.80;;;;;;5072078;28;20060;-69
2023/01/06 08:43:42;;;;;;;1.15;0.75;;;22.60;53.10;;;;;;5054018;28;20040;-74
2023/01/06 08:46:11;;;;;;;0.68;0.68;;;22.80;53.70;;;;;;5071665;28;20127;-72
2023/01/06 08:48:37;;;;;;;1.13;0.95;;;22.70;52.90;;;;;;5071459;28;20029;-70
2023/01/06 08:51:11;;;;;;;1.48;0.90;;;22.80;50.40;;;;;;5071319;28;20068;-68
2023/01/06 08:53:37;;;;;;;2.17;0.90;;;22.80;52.80;;;;;;5068711;28;20032;-68
2023/01/06 08:56:04;;;;;;;0.82;0.82;;;22.80;53.60;;;;;;5030748;28;20526;-68
2023/01/06 08:58:30;;;;;;;2.22;0.70;;;22.80;53.90;;;;;;5051264;28;20536;-68
2023/01/06 09:00:56;;;;;;;0.45;0.45;;;22.80;50.00;;;;;;5051229;28;20075;-69
2023/01/06 09:03:22;;;;;;;0.75;0.73;;;22.70;55.50;;;;;;5051087;28;20036;-70
2023/01/06 09:05:55;;;;;;;1.02;1.00;;;22.80;53.30;;;;;;5051162;28;20063;-70
2023/01/06 09:08:22;;;;;;;2.30;1.02;;;22.90;50.90;;;;;;5051015;28;20039;-69
2023/01/06 09:10:49;;;;;;;2.75;1.33;;;23.00;49.20;;;;;;5050715;28;20049;-70
2023/01/06 09:13:15;;;;;;;1.45;1.05;;;23.20;46.70;;;;;;5051037;28;20032;-68
2023/01/06 09:15:41;;;;;;;5.90;1.83;;;23.20;51.10;;;;;;5050909;28;20128;-70
2023/01/06 09:18:09;;;;;;;1.02;0.82;;;23.30;48.00;;;;;;5050997;28;20540;-68
2023/01/06 09:20:35;;;;;;;0.50;0.50;;;23.30;50.90;;;;;;5050819;28;20029;-70
2023/01/06 09:23:01;;;;;;;1.30;1.00;;;23.10;53.80;;;;;;5049976;28;20041;-69
2023/01/06 09:25:27;;;;;;;1.10;0.65;;;23.30;55.00;;;;;;5050933;28;20032;-71
2023/01/06 09:27:53;;;;;;;0.55;0.55;;;23.30;51.30;;;;;;5050591;28;20037;-71
2023/01/06 09:30:19;;;;;;;1.05;0.90;;;23.30;54.00;;;;;;5051636;28;20094;-69
2023/01/06 09:32:45;;;;;;;2.63;1.73;;;23.20;54.00;;;;;;5051360;28;20429;-66
2023/01/06 09:35:11;;;;;;;1.45;1.20;;;23.20;56.70;;;;;;5051124;28;20044;-68
2023/01/06 09:37:37;;;;;;;1.13;0.90;;;23.20;54.40;;;;;;5050621;28;20033;-68
2023/01/06 09:40:04;;;;;;;1.60;1.08;;;23.30;53.00;;;;;;5050379;28;20033;-68
2023/01/06 09:42:48;;;;;;;2.28;1.00;;;23.10;52.10;;;;;;5050212;28;20036;-69
2023/01/06 09:45:33;;;;;;;0.52;0.52;;;23.20;54.70;;;;;;5050453;28;20082;-69
2023/01/06 09:48:02;;;;;;;0.50;0.50;;;23.30;60.50;;;;;;5055771;28;20041;-69
2023/01/06 09:50:36;;;;;;;0.70;0.70;;;23.70;63.10;;;;;;5069904;28;20039;-68
2023/01/06 09:53:18;;;;;;;0.65;0.65;;;23.90;56.80;;;;;;5034733;28;20040;-69
2023/01/06 09:55:52;;;;;;;1.85;0.95;;;23.80;61.60;;;;;;5066346;28;20547;-67
2023/01/06 09:58:57;;;;;;;1.55;0.90;;;23.90;50.30;;;;;;5059642;28;20025;-67
2023/01/06 10:01:29;;;;;;;0.60;0.60;;;24.00;49.50;;;;;;4979061;28;20035;-67
2023/01/06 10:03:56;;;;;;;1.47;0.77;;;24.20;51.30;;;;;;4983153;28;20069;-68
2023/01/06 10:06:51;;;;;;;0.73;0.60;;;24.30;49.30;;;;;;4986952;28;20291;-69
2023/01/06 10:09:36;;;;;;;0.65;0.65;;;24.50;50.50;;;;;;4991141;28;20046;-69
2023/01/06 10:12:09;;;;;;;0.70;0.68;;;24.70;51.20;;;;;;5008412;28;20038;-70
2023/01/06 10:14:47;;;;;;;3.88;1.10;;;24.70;49.80;;;;;;5008467;28;20045;-69
2023/01/06 10:17:24;;;;;;;1.60;0.95;;;24.90;55.50;;;;;;5008233;28;20038;-70
2023/01/06 10:20:29;;;;;;;2.10;1.42;;;24.80;49.20;;;;;;5007433;28;20045;-68
2023/01/06 10:23:12;;;;;;;1.00;0.90;;;24.50;57.20;;;;;;4977603;28;20049;-70
2023/01/06 10:25:49;;;;;;;1.83;1.42;;;24.40;55.00;;;;;;4990923;28;20089;-70
2023/01/06 10:28:56;;;;;;;1.75;1.65;;;24.50;54.30;;;;;;4988685;28;20089;-68
2023/01/06 10:31:31;;;;;;;2.35;1.42;;;24.30;55.30;;;;;;4949888;28;20050;-71
2023/01/06 10:33:58;;;;;;;2.05;1.10;;;24.70;57.80;;;;;;4936180;29;20031;-70
2023/01/06 10:36:39;;;;;;;1.40;1.10;;;25.20;57.90;;;;;;4989234;28;20495;-69
2023/01/06 10:39:12;;;;;;;0.63;0.63;;;25.40;42.70;;;;;;4985005;28;20050;-68
2023/01/06 10:44:49;;;;;;;2.83;1.23;;;25.00;43.90;;;;;;4911418;29;20475;-70
2023/01/06 10:47:28;;;;;;;1.45;0.82;;;25.00;50.50;;;;;;4914439;29;20123;-69
2023/01/06 10:49:55;;;;;;;1.55;0.70;;;25.20;52.80;;;;;;4905360;29;20085;-66
2023/01/06 10:52:23;;;;;;;3.17;0.70;;;25.30;55.00;;;;;;4891231;29;20537;-67
2023/01/06 10:54:56;;;;;;;1.10;0.70;;;25.50;48.70;;;;;;4896593;29;20123;-67
2023/01/06 10:57:28;;;;;;;0.80;0.80;;;25.70;52.10;;;;;;4914717;29;20118;-70
2023/01/06 11:00:26;;;;;;;1.53;0.90;;;25.60;52.60;;;;;;4896178;29;20770;-69
2023/01/06 11:02:54;;;;;;;0.88;0.73;;;25.20;55.60;;;;;;4874054;29;20360;-69
2023/01/06 11:05:26;;;;;;;0.73;0.73;;;25.10;50.70;;;;;;4886994;29;20099;-69
2023/01/06 11:08:02;;;;;;;1.40;1.25;;;25.10;54.60;;;;;;4896253;29;20045;-70
2023/01/06 11:10:43;;;;;;;1.45;0.98;;;25.10;55.50;;;;;;4892228;29;20049;-70
2023/01/06 11:13:30;;;;;;;0.43;0.43;;;25.00;55.30;;;;;;4877499;29;20041;-70
2023/01/06 11:16:00;;;;;;;1.20;1.02;;;25.00;55.40;;;;;;4884763;29;20045;-71
2023/01/06 11:18:26;;;;;;;1.02;0.93;;;24.70;52.10;;;;;;4897194;29;20072;-69
2023/01/06 11:21:01;;;;;;;0.80;0.80;;;24.70;52.60;;;;;;4926096;28;20090;-70
2023/01/06 11:23:28;;;;;;;2.33;1.10;;;24.60;55.60;;;;;;4991847;28;20085;-70
2023/01/06 11:26:21;;;;;;;0.90;0.80;;;24.60;53.00;;;;;;4991560;28;20049;-70
2023/01/06 11:28:51;;;;;;;3.40;1.00;;;24.50;57.00;;;;;;4991646;28;20038;-71
2023/01/06 11:31:24;;;;;;;1.10;1.00;;;24.40;55.50;;;;;;4991112;28;20503;-70
2023/01/06 11:33:50;;;;;;;1.13;1.10;;;24.40;56.20;;;;;;5011097;28;20036;-70
2023/01/06 11:36:18;;;;;;;1.33;1.00;;;24.50;54.80;;;;;;5010579;28;20045;-70
2023/01/06 11:39:11;;;;;;;1.00;1.00;;;24.30;57.00;;;;;;5059207;28;20040;-71
2023/01/06 11:41:45;;;;;;;0.93;0.90;;;24.20;54.20;;;;;;5073395;28;20036;-70
2023/01/06 11:44:11;;;;;;;1.85;1.20;;;24.20;55.00;;;;;;5070322;28;20054;-72
2023/01/06 11:46:44;;;;;;;1.08;0.98;;;24.10;54.60;;;;;;5072398;28;20025;-70
2023/01/06 11:49:31;;;;;;;0.77;0.77;;;23.90;58.90;;;;;;5088394;28;20028;-71
2023/01/06 11:52:01;;;;;;;0.98;0.98;;;23.90;57.20;;;;;;5093255;28;20059;-71
2023/01/06 11:54:33;;;;;;;2.08;1.20;;;23.80;54.20;;;;;;5075303;28;20016;-71
2023/01/06 11:57:25;;;;;;;3.53;1.40;;;23.80;58.40;;;;;;5075764;28;20355;-71
2023/01/06 12:00:26;;;;;;;1.55;1.10;;;23.80;60.70;;;;;;5072967;28;20473;-70
2023/01/06 12:03:24;;;;;;;2.75;1.13;;;23.70;60.00;;;;;;5072653;28;20035;-69
2023/01/06 12:06:12;;;;;;;1.52;1.15;;;23.80;58.20;;;;;;5072718;28;20037;-71
2023/01/06 12:09:00;;;;;;;2.80;1.00;;;23.70;59.00;;;;;;5078655;28;20025;-71
2023/01/06 12:11:48;;;;;;;0.93;0.90;;;23.70;58.20;;;;;;5071048;28;20042;-69
2023/01/06 12:14:20;;;;;;;0.73;0.73;;;23.50;63.50;;;;;;5072707;28;20032;-69
2023/01/06 12:17:06;;;;;;;2.17;1.30;;;23.50;58.90;;;;;;5072505;28;20081;-70
2023/01/06 12:20:01;;;;;;;1.77;1.33;;;23.60;61.80;;;;;;5014059;28;20083;-72
2023/01/06 12:22:38;;;;;;;1.85;1.50;;;23.40;59.10;;;;;;4990600;28;20066;-70
2023/01/06 12:25:16;;;;;;;1.20;1.10;;;23.50;59.70;;;;;;4990491;28;20070;-69
2023/01/06 12:27:56;;;;;;;2.17;1.75;;;23.50;59.60;;;;;;4954979;28;20039;-70
2023/01/06 12:30:36;;;;;;;0.90;0.90;;;23.40;61.00;;;;;;4990502;28;20046;-72
2023/01/06 12:33:11;;;;;;;0.90;0.90;;;23.40;58.50;;;;;;4990731;28;20043;-70
2023/01/06 12:35:40;;;;;;;1.33;1.23;;;23.40;57.30;;;;;;4991738;28;20070;-68
2023/01/06 12:38:21;;;;;;;1.50;1.38;;;23.50;56.60;;;;;;5010074;28;20053;-70
2023/01/06 12:40:57;;;;;;;1.85;1.38;;;23.30;60.00;;;;;;5009964;28;20081;-69
2023/01/06 12:43:27;;;;;;;1.35;1.25;;;23.30;59.10;;;;;;5008561;28;20058;-70
2023/01/06 12:46:18;;;;;;;1.20;1.10;;;23.30;58.20;;;;;;4970836;28;20042;-68
2023/01/06 12:48:55;;;;;;;1.17;1.08;;;23.30;62.90;;;;;;4970843;28;20146;-68
2023/01/06 12:51:33;;;;;;;1.38;1.17;;;23.30;59.80;;;;;;4988650;28;20041;-69
2023/01/06 12:54:26;;;;;;;1.30;1.20;;;23.20;57.70;;;;;;5009681;28;20049;-69
2023/01/06 12:57:18;;;;;;;1.58;1.27;;;23.10;62.20;;;;;;5032131;28;20037;-69
2023/01/06 13:00:24;;;;;;;1.77;1.40;;;23.20;62.60;;;;;;5027119;28;20429;-68
2023/01/06 13:03:05;;;;;;;1.38;0.98;;;23.40;58.80;;;;;;5049137;28;20524;-68
2023/01/06 13:05:37;;;;;;;0.90;0.90;;;23.30;59.30;;;;;;5048791;28;20634;-67
2023/01/06 13:08:34;;;;;;;1.50;1.27;;;23.40;58.90;;;;;;5049125;28;20526;-68
2023/01/06 13:11:09;;;;;;;1.17;1.17;;;23.40;60.00;;;;;;5048795;28;20079;-68
2023/01/06 13:13:52;;;;;;;1.50;1.38;;;23.40;59.00;;;;;;5048728;28;20025;-68
2023/01/06 13:17:16;;;;;;;1.30;1.20;;;23.50;59.50;;;;;;5049064;28;20048;-69
2023/01/06 13:19:56;;;;;;;3.50;1.88;;;23.40;61.70;;;;;;5028318;28;20041;-69
2023/01/06 13:22:25;;;;;;;2.85;1.60;;;23.50;61.60;;;;;;5028458;28;20037;-69